Time,TemperatureF,DewpointF,PressureIn,WindDirection,WindDirectionDegrees,WindSpeedMPH,WindSpeedGustMPH,Humidity,HourlyPrecipIn,Conditions,Clouds,dailyrainin,SoftwareType,DateUTC
2013-03-02 00:01:00,51.0,20.0,30.36,NW,307,1.0,3.0,29,0.00,,,0.00,,2013-03-02 08:01:00,
2013-03-02 00:11:00,51.0,20.0,30.36,NW,307,1.0,3.0,29,0.00,,,0.00,,2013-03-02 08:11:00,
2013-03-02 00:21:00,52.0,21.0,30.35,NW,319,4.0,6.0,29,0.00,,,0.00,,2013-03-02 08:21:00,
2013-03-02 00:31:00,52.0,21.0,30.35,NW,319,4.0,6.0,29,0.00,,,0.00,,2013-03-02 08:31:00,
2013-03-02 00:42:00,52.0,21.0,30.35,NW,319,4.0,6.0,29,0.00,,,0.00,,2013-03-02 08:42:00,
2013-03-02 00:52:00,52.0,20.0,30.35,NW,322,4.0,5.0,28,0.00,,,0.00,,2013-03-02 08:52:00,
2013-03-02 01:01:00,53.0,21.0,30.35,NW,323,3.0,5.0,28,0.00,,,0.00,,2013-03-02 09:01:00,
2013-03-02 01:11:00,52.0,21.0,30.35,NW,324,2.0,4.0,29,0.00,,,0.00,,2013-03-02 09:11:00,
2013-03-02 01:21:00,52.0,21.0,30.35,NW,324,2.0,4.0,29,0.00,,,0.00,,2013-03-02 09:21:00,
2013-03-02 01:31:00,51.0,21.0,30.35,NW,324,2.0,4.0,30,0.00,,,0.00,,2013-03-02 09:31:00,
2013-03-02 01:42:00,51.0,21.0,30.35,NW,324,2.0,4.0,30,0.00,,,0.00,,2013-03-02 09:42:00,
2013-03-02 01:52:00,50.0,21.0,30.35,NW,324,1.0,3.0,31,0.00,,,0.00,,2013-03-02 09:52:00,
2013-03-02 02:01:00,50.0,21.0,30.35,NW,324,1.0,3.0,31,0.00,,,0.00,,2013-03-02 10:01:00,
2013-03-02 02:11:00,50.0,21.0,30.35,NW,324,1.0,3.0,31,0.00,,,0.00,,2013-03-02 10:11:00,
2013-03-02 02:21:00,50.0,22.0,30.35,North,0,0.0,4.0,33,0.00,,,0.00,,2013-03-02 10:21:00,
2013-03-02 02:31:00,49.0,21.0,30.35,NW,325,2.0,4.0,33,0.00,,,0.00,,2013-03-02 10:31:00,
2013-03-02 02:43:00,49.0,21.0,30.35,NW,325,2.0,4.0,33,0.00,,,0.00,,2013-03-02 10:43:00,
2013-03-02 02:52:00,49.0,22.0,30.34,NW,325,2.0,4.0,34,0.00,,,0.00,,2013-03-02 10:52:00,
2013-03-02 03:01:00,48.0,21.0,30.33,NW,325,3.0,5.0,34,0.00,,,0.00,,2013-03-02 11:01:00,
2013-03-02 03:11:00,48.0,21.0,30.33,NW,325,3.0,5.0,34,0.00,,,0.00,,2013-03-02 11:11:00,
2013-03-02 03:21:00,51.0,22.0,30.32,NNW,331,2.0,4.0,32,0.00,,,0.00,,2013-03-02 11:21:00,
2013-03-02 03:31:00,51.0,21.0,30.32,NNW,345,4.0,6.0,31,0.00,,,0.00,,2013-03-02 11:31:00,
2013-03-02 03:52:00,51.0,22.0,30.32,NNW,338,3.0,5.0,32,0.00,,,0.00,,2013-03-02 11:52:00,
2013-03-02 04:02:00,51.0,22.0,30.32,North,0,0.0,5.0,32,0.00,,,0.00,,2013-03-02 12:02:00,
2013-03-02 04:11:00,51.0,22.0,30.32,North,0,0.0,5.0,32,0.00,,,0.00,,2013-03-02 12:11:00,
2013-03-02 04:21:00,49.0,22.0,30.32,NNW,331,2.0,4.0,34,0.00,,,0.00,,2013-03-02 12:21:00,
2013-03-02 04:32:00,48.0,22.0,30.32,North,0,0.0,4.0,35,0.00,,,0.00,,2013-03-02 12:32:00,
2013-03-02 04:42:00,48.0,22.0,30.32,North,0,0.0,4.0,35,0.00,,,0.00,,2013-03-02 12:42:00,
2013-03-02 04:53:00,48.0,22.0,30.32,NW,323,1.0,4.0,35,0.00,,,0.00,,2013-03-02 12:53:00,
2013-03-02 05:01:00,48.0,22.0,30.32,NW,323,2.0,3.0,35,0.00,,,0.00,,2013-03-02 13:01:00,
2013-03-02 05:11:00,48.0,22.0,30.32,NW,323,2.0,3.0,35,0.00,,,0.00,,2013-03-02 13:11:00,
2013-03-02 05:21:00,46.0,21.0,30.32,NW,323,2.0,4.0,37,0.00,,,0.00,,2013-03-02 13:21:00,
2013-03-02 05:31:00,47.0,22.0,30.32,NW,323,2.0,4.0,37,0.00,,,0.00,,2013-03-02 13:31:00,
2013-03-02 05:41:00,47.0,22.0,30.32,NW,323,2.0,4.0,37,0.00,,,0.00,,2013-03-02 13:41:00,
2013-03-02 05:52:00,46.0,22.0,30.33,NW,323,1.0,3.0,38,0.00,,,0.00,,2013-03-02 13:52:00,
2013-03-02 06:01:00,45.0,21.0,30.33,NW,323,3.0,5.0,38,0.00,,,0.00,,2013-03-02 14:01:00,
2013-03-02 06:11:00,45.0,21.0,30.33,NW,323,3.0,5.0,38,0.00,,,0.00,,2013-03-02 14:11:00,
2013-03-02 06:21:00,45.0,22.0,30.33,NW,324,3.0,4.0,39,0.00,,,0.00,,2013-03-02 14:21:00,
2013-03-02 06:31:00,45.0,22.0,30.33,NW,324,3.0,5.0,39,0.00,,,0.00,,2013-03-02 14:31:00,
2013-03-02 06:41:00,45.0,22.0,30.33,NW,324,3.0,5.0,39,0.00,,,0.00,,2013-03-02 14:41:00,
2013-03-02 06:52:00,45.0,22.0,30.33,NW,324,3.0,5.0,39,0.00,,,0.00,,2013-03-02 14:52:00,
2013-03-02 07:01:00,46.0,22.0,30.33,NW,325,3.0,5.0,39,0.00,,,0.00,,2013-03-02 15:01:00,
2013-03-02 07:11:00,46.0,22.0,30.33,NW,325,3.0,5.0,39,0.00,,,0.00,,2013-03-02 15:11:00,
2013-03-02 07:21:00,49.0,24.0,30.33,NW,325,1.0,4.0,37,0.00,,,0.00,,2013-03-02 15:21:00,
2013-03-02 07:31:00,51.0,26.0,30.33,North,0,0.0,0.0,37,0.00,,,0.00,,2013-03-02 15:31:00,
2013-03-02 07:52:00,56.0,25.0,30.34,North,0,0.0,0.0,30,0.00,,,0.00,,2013-03-02 15:52:00,
2013-03-02 08:01:00,57.0,23.0,30.33,North,0,0.0,0.0,27,0.00,,,0.00,,2013-03-02 16:01:00,
2013-03-02 08:21:00,62.0,24.0,30.34,North,0,0.0,0.0,23,0.00,,,0.00,,2013-03-02 16:21:00,
2013-03-02 08:31:00,63.0,24.0,30.34,North,0,0.0,1.0,22,0.00,,,0.00,,2013-03-02 16:31:00,
2013-03-02 08:52:00,63.0,24.0,30.33,North,0,0.0,0.0,22,0.00,,,0.00,,2013-03-02 16:52:00,
2013-03-02 09:01:00,65.0,25.0,30.34,North,0,0.0,1.0,22,0.00,,,0.00,,2013-03-02 17:01:00,
2013-03-02 09:11:00,66.0,25.0,30.33,North,0,0.0,3.0,21,0.00,,,0.00,,2013-03-02 17:11:00,
2013-03-02 09:21:00,66.0,25.0,30.33,North,0,0.0,3.0,21,0.00,,,0.00,,2013-03-02 17:21:00,
2013-03-02 09:31:00,66.0,25.0,30.32,NE,37,1.0,3.0,21,0.00,,,0.00,,2013-03-02 17:31:00,
2013-03-02 09:41:00,66.0,25.0,30.32,NE,37,1.0,3.0,21,0.00,,,0.00,,2013-03-02 17:41:00,
2013-03-02 09:52:00,66.0,25.0,30.32,NE,38,1.0,3.0,21,0.00,,,0.00,,2013-03-02 17:52:00,
2013-03-02 10:01:00,66.0,25.0,30.32,ENE,62,3.0,4.0,21,0.00,,,0.00,,2013-03-02 18:01:00,
2013-03-02 10:11:00,66.0,25.0,30.32,ENE,62,3.0,4.0,21,0.00,,,0.00,,2013-03-02 18:11:00,
2013-03-02 10:21:00,67.0,25.0,30.31,ESE,105,3.0,7.0,20,0.00,,,0.00,,2013-03-02 18:21:00,
2013-03-02 10:31:00,67.0,25.0,30.31,East,99,3.0,8.0,20,0.00,,,0.00,,2013-03-02 18:31:00,
2013-03-02 10:41:00,67.0,25.0,30.31,East,99,3.0,8.0,20,0.00,,,0.00,,2013-03-02 18:41:00,
2013-03-02 10:52:00,68.0,24.0,30.30,East,96,3.0,7.0,19,0.00,,,0.00,,2013-03-02 18:52:00,
2013-03-02 11:01:00,68.0,24.0,30.30,East,96,3.0,7.0,19,0.00,,,0.00,,2013-03-02 19:01:00,
2013-03-02 11:11:00,68.0,24.0,30.30,East,96,3.0,7.0,19,0.00,,,0.00,,2013-03-02 19:11:00,
2013-03-02 11:21:00,69.0,25.0,30.30,ENE,59,1.0,7.0,19,0.00,,,0.00,,2013-03-02 19:21:00,
2013-03-02 11:31:00,69.0,26.0,30.29,East,94,2.0,7.0,20,0.00,,,0.00,,2013-03-02 19:31:00,
2013-03-02 11:42:00,69.0,26.0,30.29,East,94,2.0,7.0,20,0.00,,,0.00,,2013-03-02 19:42:00,
2013-03-02 11:52:00,70.0,25.0,30.27,East,88,1.0,6.0,18,0.00,,,0.00,,2013-03-02 19:52:00,
2013-03-02 12:01:00,71.0,27.0,30.27,East,101,5.0,10.0,19,0.00,,,0.00,,2013-03-02 20:01:00,
2013-03-02 12:11:00,71.0,27.0,30.27,East,101,5.0,10.0,19,0.00,,,0.00,,2013-03-02 20:11:00,
2013-03-02 12:21:00,70.0,26.0,30.26,SE,133,4.0,9.0,19,0.00,,,0.00,,2013-03-02 20:21:00,
2013-03-02 12:31:00,70.0,25.0,30.26,East,96,3.0,7.0,18,0.00,,,0.00,,2013-03-02 20:31:00,
2013-03-02 12:41:00,70.0,25.0,30.26,East,96,3.0,7.0,18,0.00,,,0.00,,2013-03-02 20:41:00,
2013-03-02 12:52:00,71.0,27.0,30.24,SE,144,4.0,10.0,19,0.00,,,0.00,,2013-03-02 20:52:00,
2013-03-02 13:02:00,71.0,25.0,30.24,SSE,151,3.0,10.0,18,0.00,,,0.00,,2013-03-02 21:02:00,
2013-03-02 13:11:00,71.0,25.0,30.24,SSE,151,3.0,10.0,18,0.00,,,0.00,,2013-03-02 21:11:00,
2013-03-02 13:21:00,71.0,25.0,30.22,North,0,0.0,7.0,18,0.00,,,0.00,,2013-03-02 21:21:00,
2013-03-02 13:31:00,71.0,24.0,30.21,SE,133,2.0,6.0,17,0.00,,,0.00,,2013-03-02 21:31:00,
2013-03-02 13:41:00,71.0,24.0,30.21,SE,133,2.0,6.0,17,0.00,,,0.00,,2013-03-02 21:41:00,
2013-03-02 13:52:00,71.0,24.0,30.20,North,0,0.0,7.0,17,0.00,,,0.00,,2013-03-02 21:52:00,
2013-03-02 14:01:00,72.0,25.0,30.19,ESE,112,1.0,5.0,17,0.00,,,0.00,,2013-03-02 22:01:00,
2013-03-02 14:11:00,72.0,25.0,30.19,ESE,112,1.0,5.0,17,0.00,,,0.00,,2013-03-02 22:11:00,
2013-03-02 14:21:00,72.0,23.0,30.19,North,0,0.0,8.0,16,0.00,,,0.00,,2013-03-02 22:21:00,
2013-03-02 14:31:00,73.0,24.0,30.18,South,185,3.0,6.0,16,0.00,,,0.00,,2013-03-02 22:31:00,
2013-03-02 14:41:00,73.0,24.0,30.18,South,185,3.0,6.0,16,0.00,,,0.00,,2013-03-02 22:41:00,
2013-03-02 14:52:00,72.0,25.0,30.18,SSE,150,2.0,6.0,17,0.00,,,0.00,,2013-03-02 22:52:00,
2013-03-02 15:01:00,72.0,23.0,30.17,SSE,155,2.0,8.0,16,0.00,,,0.00,,2013-03-02 23:01:00,
2013-03-02 15:11:00,74.0,25.0,30.16,East,90,5.0,9.0,16,0.00,,,0.00,,2013-03-02 23:11:00,
2013-03-02 15:21:00,74.0,25.0,30.16,East,90,5.0,9.0,16,0.00,,,0.00,,2013-03-02 23:21:00,
2013-03-02 15:31:00,74.0,23.0,30.15,South,190,8.0,15.0,15,0.00,,,0.00,,2013-03-02 23:31:00,
2013-03-02 15:41:00,74.0,23.0,30.15,South,190,8.0,15.0,15,0.00,,,0.00,,2013-03-02 23:41:00,
2013-03-02 15:52:00,73.0,24.0,30.14,SSW,197,8.0,13.0,16,0.00,,,0.00,,2013-03-02 23:52:00,
2013-03-02 16:02:00,72.0,23.0,30.14,SW,219,7.0,14.0,16,0.00,,,0.00,,2013-03-03 00:02:00,
2013-03-02 16:11:00,72.0,23.0,30.14,SW,219,7.0,14.0,16,0.00,,,0.00,,2013-03-03 00:11:00,
2013-03-02 16:22:00,72.0,23.0,30.14,SW,214,6.0,13.0,16,0.00,,,0.00,,2013-03-03 00:22:00,
2013-03-02 16:31:00,72.0,23.0,30.14,SW,220,5.0,9.0,16,0.00,,,0.00,,2013-03-03 00:31:00,
2013-03-02 16:42:00,72.0,23.0,30.14,SW,220,5.0,9.0,16,0.00,,,0.00,,2013-03-03 00:42:00,
2013-03-02 16:52:00,73.0,23.0,30.13,SW,231,7.0,13.0,15,0.00,,,0.00,,2013-03-03 00:52:00,
2013-03-02 17:01:00,72.0,23.0,30.13,SW,228,6.0,13.0,16,0.00,,,0.00,,2013-03-03 01:01:00,
2013-03-02 17:11:00,72.0,23.0,30.13,SW,228,6.0,13.0,16,0.00,,,0.00,,2013-03-03 01:11:00,
2013-03-02 17:21:00,72.0,23.0,30.12,SSW,210,9.0,17.0,16,0.00,,,0.00,,2013-03-03 01:21:00,
2013-03-02 17:31:00,72.0,23.0,30.12,SSW,201,4.0,12.0,16,0.00,,,0.00,,2013-03-03 01:31:00,
2013-03-02 17:41:00,72.0,23.0,30.12,SSW,201,4.0,12.0,16,0.00,,,0.00,,2013-03-03 01:41:00,
2013-03-02 17:52:00,71.0,24.0,30.12,SW,217,4.0,13.0,17,0.00,,,0.00,,2013-03-03 01:52:00,
2013-03-02 18:01:00,70.0,26.0,30.12,SSW,211,7.0,14.0,19,0.00,,,0.00,,2013-03-03 02:01:00,
2013-03-02 18:11:00,68.0,27.0,30.12,SW,223,5.0,11.0,21,0.00,,,0.00,,2013-03-03 02:11:00,
2013-03-02 18:21:00,68.0,27.0,30.12,SW,223,5.0,11.0,21,0.00,,,0.00,,2013-03-03 02:21:00,
2013-03-02 18:31:00,68.0,27.0,30.13,SW,226,10.0,16.0,21,0.00,,,0.00,,2013-03-03 02:31:00,
2013-03-02 18:41:00,68.0,27.0,30.13,SW,226,10.0,16.0,21,0.00,,,0.00,,2013-03-03 02:41:00,
2013-03-02 18:52:00,67.0,27.0,30.13,WSW,245,7.0,16.0,22,0.00,,,0.00,,2013-03-03 02:52:00,
2013-03-02 19:01:00,66.0,26.0,30.14,WSW,252,4.0,12.0,22,0.00,,,0.00,,2013-03-03 03:01:00,
2013-03-02 19:11:00,66.0,26.0,30.14,WSW,252,4.0,12.0,22,0.00,,,0.00,,2013-03-03 03:11:00,
2013-03-02 19:21:00,64.0,25.0,30.14,West,262,4.0,10.0,23,0.00,,,0.00,,2013-03-03 03:21:00,
2013-03-02 19:31:00,64.0,25.0,30.14,West,273,3.0,10.0,23,0.00,,,0.00,,2013-03-03 03:31:00,
2013-03-02 19:41:00,64.0,25.0,30.14,West,273,3.0,10.0,23,0.00,,,0.00,,2013-03-03 03:41:00,
2013-03-02 19:52:00,61.0,27.0,30.14,WNW,303,3.0,7.0,27,0.00,,,0.00,,2013-03-03 03:52:00,
2013-03-02 20:01:00,60.0,28.0,30.14,WNW,285,3.0,6.0,29,0.00,,,0.00,,2013-03-03 04:01:00,
2013-03-02 20:11:00,60.0,28.0,30.14,WNW,285,3.0,6.0,29,0.00,,,0.00,,2013-03-03 04:11:00,
2013-03-02 20:21:00,61.0,28.0,30.14,West,277,5.0,11.0,28,0.00,,,0.00,,2013-03-03 04:21:00,
2013-03-02 20:31:00,61.0,27.0,30.14,West,269,6.0,10.0,27,0.00,,,0.00,,2013-03-03 04:31:00,
2013-03-02 20:41:00,61.0,27.0,30.14,West,269,6.0,10.0,27,0.00,,,0.00,,2013-03-03 04:41:00,
2013-03-02 20:52:00,60.0,28.0,30.14,WNW,290,5.0,9.0,29,0.00,,,0.00,,2013-03-03 04:52:00,
2013-03-02 21:01:00,60.0,28.0,30.14,WNW,288,4.0,10.0,30,0.00,,,0.00,,2013-03-03 05:01:00,
2013-03-02 21:11:00,60.0,28.0,30.14,WNW,288,4.0,10.0,30,0.00,,,0.00,,2013-03-03 05:11:00,
2013-03-02 21:21:00,59.0,28.0,30.14,WNW,295,4.0,6.0,31,0.00,,,0.00,,2013-03-03 05:21:00,
2013-03-02 21:32:00,59.0,28.0,30.15,WNW,298,2.0,7.0,30,0.00,,,0.00,,2013-03-03 05:32:00,
2013-03-02 21:42:00,59.0,28.0,30.15,WNW,298,2.0,7.0,30,0.00,,,0.00,,2013-03-03 05:42:00,
2013-03-02 21:52:00,60.0,28.0,30.16,West,266,3.0,7.0,29,0.00,,,0.00,,2013-03-03 05:52:00,
2013-03-02 22:01:00,60.0,28.0,30.15,WSW,249,2.0,7.0,30,0.00,,,0.00,,2013-03-03 06:01:00,
2013-03-02 22:11:00,60.0,28.0,30.15,WSW,249,2.0,7.0,30,0.00,,,0.00,,2013-03-03 06:11:00,
2013-03-02 22:21:00,61.0,30.0,30.14,WNW,291,6.0,13.0,31,0.00,,,0.00,,2013-03-03 06:21:00,
2013-03-02 22:31:00,62.0,30.0,30.14,WNW,292,9.0,13.0,30,0.00,,,0.00,,2013-03-03 06:31:00,
2013-03-02 22:42:00,62.0,30.0,30.14,WNW,292,9.0,13.0,30,0.00,,,0.00,,2013-03-03 06:42:00,
2013-03-02 22:52:00,63.0,32.0,30.14,West,272,7.0,15.0,31,0.00,,,0.00,,2013-03-03 06:52:00,
2013-03-02 23:01:00,61.0,31.0,30.14,West,271,4.0,11.0,32,0.00,,,0.00,,2013-03-03 07:01:00,
2013-03-02 23:11:00,61.0,31.0,30.14,West,271,4.0,11.0,32,0.00,,,0.00,,2013-03-03 07:11:00,
2013-03-02 23:21:00,60.0,32.0,30.12,WNW,293,9.0,14.0,35,0.00,,,0.00,,2013-03-03 07:21:00,
2013-03-02 23:31:00,60.0,32.0,30.13,WNW,294,11.0,16.0,35,0.00,,,0.00,,2013-03-03 07:31:00,
2013-03-02 23:42:00,60.0,32.0,30.13,WNW,294,11.0,16.0,35,0.00,,,0.00,,2013-03-03 07:42:00,
2013-03-02 23:51:00,60.0,33.0,30.13,WNW,293,9.0,15.0,36,0.00,,,0.00,,2013-03-03 07:51:00,